EA5AFP-10 Ador ES current weather conditions

sailwx.info

Wind from 090 at 4 knots gusting 6

Air temperature 14.4° C
Dewpoint -24.7° C

Last reported at 2019-Mar-18 16:00 UTC.
Time now 2019-Mar-18 16:16 UTC

Location: N 38°55' W 000°13'.
View on Google Maps.

See reports from other nearby stations

  
Tides and Currents Weather Stations Pressure Air Temp Water Temp Dewpoint Dewpoint Depression Visibility Wind Speed Wind Dir Waves Ship Positions
date/time (UTC)wind fromknots sea level pressurealtimeterstation pressurevisibilityair tempwater tempwave heightnotes
2019-Mar-18 16:00 090 4 gusting 6 14.4
2019-Mar-18 15:50 090 2 gusting 6 14.4
2019-Mar-18 15:41 090 1 gusting 2 14.4
2019-Mar-18 15:32 13.9
2019-Mar-18 15:23 090 2 gusting 5 13.9
2019-Mar-18 15:14 135 2 gusting 6 14.4
2019-Mar-18 15:05 090 3 gusting 6 14.4
2019-Mar-18 14:57 090 2 gusting 6 13.9
2019-Mar-18 14:47 090 1 gusting 2 13.9
2019-Mar-18 14:39 090 1 gusting 2 13.9
2019-Mar-18 14:30 090 2 gusting 5 13.9
2019-Mar-18 14:22 135 1 gusting 4 13.9
2019-Mar-18 14:14 135 2 gusting 5 13.9
2019-Mar-18 14:05 090 3 gusting 6 13.9
2019-Mar-18 13:57 090 4 gusting 8 13.9
2019-Mar-18 13:47 090 5 gusting 9 13.9
2019-Mar-18 13:37 090 2 gusting 5 13.9
2019-Mar-18 13:27 090 0 gusting 1 13.9
2019-Mar-18 13:19 180 0 gusting 1 13.9
2019-Mar-18 13:11 090 2 gusting 5 13.9
2019-Mar-18 13:01 090 1 gusting 4 14.4
2019-Mar-18 12:52 180 2 gusting 5 14.4
2019-Mar-18 12:44 315 2 gusting 3 14.4
2019-Mar-18 12:34 090 1 gusting 2 13.9
2019-Mar-18 12:25 090 2 gusting 6 13.9
2019-Mar-18 12:16 090 13.9
2019-Mar-18 12:08 045 0 gusting 2 13.9
2019-Mar-18 11:58 090 1 gusting 4 13.9
2019-Mar-18 11:48 13.9
2019-Mar-18 11:38 225 2 gusting 5 13.3
2019-Mar-18 11:29 270 1 gusting 5 13.3
2019-Mar-18 11:20 090 2 gusting 6 13.3
2019-Mar-18 11:10 090 1 gusting 3 13.3
2019-Mar-18 11:01 090 13.3
2019-Mar-18 10:51 135 2 gusting 6 13.9
2019-Mar-18 10:41 13.3
2019-Mar-18 10:33 180 0 gusting 2 13.3
2019-Mar-18 10:24 12.8
2019-Mar-18 10:16 270 12.8
2019-Mar-18 10:08 225 12.8
2019-Mar-18 09:59 180 1 gusting 4 12.8
2019-Mar-18 09:50 225 2 gusting 3 12.8
2019-Mar-18 09:41 180 1 gusting 2 12.2
2019-Mar-18 09:32 135 2 gusting 5 12.2
2019-Mar-18 09:24 180 2 gusting 5 12.2
2019-Mar-18 09:15 180 3 gusting 6 12.2
2019-Mar-18 09:06 180 1 gusting 5 12.2
2019-Mar-18 08:57 270 1 gusting 5 12.2
2019-Mar-18 08:48 135 12.2
2019-Mar-18 08:38 180 2 gusting 5 12.2
2019-Mar-18 08:29 135 2 gusting 5 12.2
2019-Mar-18 08:21 090 12.2
2019-Mar-18 08:12 135 12.2
2019-Mar-18 08:02 12.2
2019-Mar-18 07:54 12.2
2019-Mar-18 07:44 12.2
2019-Mar-18 07:35 090 12.2
2019-Mar-18 07:27 090 0 gusting 1 12.2
2019-Mar-18 07:18 090 12.2
2019-Mar-18 07:09 045 12.2
2019-Mar-18 07:01 12.2
2019-Mar-18 06:52 12.2
2019-Mar-18 06:43 11.7
2019-Mar-18 06:34 11.7
2019-Mar-18 06:26 135 0 gusting 2 11.7
2019-Mar-18 06:17 11.7
2019-Mar-18 06:09 11.7
2019-Mar-18 06:00 135 0 gusting 2 11.7
2019-Mar-18 05:52 090 5 gusting 7 12.2
2019-Mar-18 05:43 090 2 gusting 5 12.8
2019-Mar-18 05:33 090 2 gusting 3 12.8
2019-Mar-18 05:23 090 4 gusting 6 13.3
2019-Mar-18 05:15 090 2 gusting 6 13.3
2019-Mar-18 05:06 090 2 gusting 4 13.3
2019-Mar-18 04:56 090 2 gusting 6 13.3
2019-Mar-18 04:47 090 2 gusting 5 13.3
2019-Mar-18 04:38 090 4 gusting 8 13.3
2019-Mar-18 04:30 090 2 gusting 4 13.3
2019-Mar-18 04:21 045 0 gusting 2 13.3
2019-Mar-18 04:12 180 4 gusting 10 13.3
2019-Mar-18 04:03 090 1 gusting 5 13.3
2019-Mar-18 03:54 090 2 gusting 4 13.3
2019-Mar-18 03:44 045 2 gusting 7 12.8
2019-Mar-18 03:35 090 2 gusting 4 12.8
2019-Mar-18 03:26 045 0 gusting 2 12.8
2019-Mar-18 03:17 135 12.8
2019-Mar-18 03:08 090 12.8
2019-Mar-18 02:59 12.8
2019-Mar-18 02:49 12.8
2019-Mar-18 02:41 12.8
2019-Mar-18 02:31 12.2
2019-Mar-18 02:22 270 0 gusting 1 12.2
2019-Mar-18 02:14 12.8
2019-Mar-18 02:04 12.8
2019-Mar-18 01:56 270 12.8
2019-Mar-18 01:47 180 12.8
2019-Mar-18 01:39 13.3
2019-Mar-18 01:31 090 13.3
2019-Mar-18 01:22 13.3
2019-Mar-18 01:14 12.8
2019-Mar-18 01:05 270 13.3
2019-Mar-18 00:57 13.3
2019-Mar-18 00:49 13.3
2019-Mar-18 00:40 13.3
2019-Mar-18 00:31 13.3
2019-Mar-18 00:22 270 1 gusting 2 13.3
2019-Mar-18 00:13 13.9
2019-Mar-18 00:04 13.9
2019-Mar-17 23:55 180 14.4
2019-Mar-17 23:45 090 0 gusting 2 15.0
2019-Mar-17 23:37 15.0
2019-Mar-17 23:27 090 2 gusting 5 14.4
2019-Mar-17 23:17 270 14.4
2019-Mar-17 23:08 270 15.0
2019-Mar-17 22:59 15.0
2019-Mar-17 22:51 090 0 gusting 2 15.0
2019-Mar-17 22:41 15.0
2019-Mar-17 22:32 15.0
2019-Mar-17 22:23 090 0 gusting 2 15.0
2019-Mar-17 22:14 045 15.6
2019-Mar-17 22:05 15.6
2019-Mar-17 21:56 045 0 gusting 2 15.6
2019-Mar-17 21:48 090 0 gusting 2 16.1
2019-Mar-17 21:38 045 2 gusting 8 16.1
2019-Mar-17 21:28 090 3 gusting 7 16.7
2019-Mar-17 21:20 090 2 gusting 6 16.7
2019-Mar-17 21:12 16.7
2019-Mar-17 21:03 17.2
2019-Mar-17 20:53 045 0 gusting 2 17.2
2019-Mar-17 20:44 045 2 gusting 5 17.8
2019-Mar-17 20:34 090 2 gusting 5 17.8
2019-Mar-17 20:24 18.3
2019-Mar-17 20:15 17.8
2019-Mar-17 20:07 17.8
2019-Mar-17 19:58 135 3 gusting 9 17.8
2019-Mar-17 19:50 17.8
2019-Mar-17 19:42 090 3 gusting 5 17.2
2019-Mar-17 19:32 090 0 gusting 2 17.2
2019-Mar-17 19:22 045 3 gusting 5 17.8
2019-Mar-17 19:13 270 5 gusting 9 18.9
2019-Mar-17 19:04 045 6 gusting 10 20.0
2019-Mar-17 18:55 270 0 gusting 2 20.6
2019-Mar-17 18:46 270 2 gusting 2 21.1
2019-Mar-17 18:36 270 0 gusting 2 21.7
2019-Mar-17 18:27 22.2
2019-Mar-17 18:18 23.3
2019-Mar-17 18:08 270 1 gusting 2 23.9
2019-Mar-17 18:00 225 1 gusting 3 23.9
2019-Mar-17 17:50 225 25.0
2019-Mar-17 17:40 180 2 gusting 4 25.0
2019-Mar-17 17:31 270 0 gusting 2 25.6
2019-Mar-17 17:23 225 3 gusting 6 26.1
2019-Mar-17 17:13 180 1 gusting 4 26.1
2019-Mar-17 17:04 315 0 gusting 2 26.1
2019-Mar-17 16:54 26.7
2019-Mar-17 16:44 270 0 gusting 2 26.7
2019-Mar-17 16:36 26.7
2019-Mar-17 16:26 270 0 gusting 3 26.7
2019-Mar-17 16:16 270 3 gusting 5 26.7
2019-Mar-17 16:07 270 5 gusting 12 27.2
2019-Mar-17 15:57 27.2
2019-Mar-17 15:49 270 5 gusting 7 27.2
2019-Mar-17 15:41 180 5 gusting 7 27.2
2019-Mar-17 15:33 270 5 gusting 10 27.2
2019-Mar-17 15:23 315 5 gusting 9 27.2
2019-Mar-17 15:15 315 6 gusting 13 27.8
2019-Mar-17 15:07 27.8
2019-Mar-17 14:57 270 1 gusting 5 27.8
2019-Mar-17 14:48 315 5 gusting 10 27.8
2019-Mar-17 14:38 225 4 gusting 7 27.2
2019-Mar-17 14:29 27.2
2019-Mar-17 14:20 270 2 gusting 5 27.2
2019-Mar-17 14:11 27.2
2019-Mar-17 14:02 270 2 gusting 5 27.2
2019-Mar-17 13:54 270 1 gusting 2 27.2
2019-Mar-17 13:45 27.2
2019-Mar-17 13:37 270 2 gusting 4 26.7
2019-Mar-17 13:28 270 7 gusting 13 26.7
2019-Mar-17 13:19 180 2 gusting 4 26.7
2019-Mar-17 13:10 315 4 gusting 6 26.7
2019-Mar-17 13:01 315 6 gusting 12 26.7
2019-Mar-17 12:52 270 7 gusting 12 26.7
2019-Mar-17 12:44 315 5 gusting 13 26.7
2019-Mar-17 12:35 270 5 gusting 7 26.1
2019-Mar-17 12:26 315 3 gusting 7 26.1
2019-Mar-17 12:16 270 6 gusting 12 26.1
2019-Mar-17 12:08 270 7 gusting 14 26.1
2019-Mar-17 11:59 25.6
2019-Mar-17 11:51 270 2 gusting 6 25.6
2019-Mar-17 11:41 270 10 gusting 20 25.6
2019-Mar-17 11:33 315 4 gusting 11 25.6
2019-Mar-17 11:25 270 3 gusting 9 25.6
2019-Mar-17 11:16 270 10 gusting 17 25.6
2019-Mar-17 11:08 270 5 gusting 7 25.6
2019-Mar-17 10:58 315 3 gusting 5 25.6
2019-Mar-17 10:49 25.0
2019-Mar-17 10:40 270 2 gusting 6 25.0
2019-Mar-17 10:30 225 5 gusting 7 24.4
2019-Mar-17 10:21 180 4 gusting 7 24.4
2019-Mar-17 10:13 270 5 gusting 7 23.9
2019-Mar-17 10:04 270 5 gusting 9 23.9
2019-Mar-17 09:55 180 5 gusting 8 23.3
2019-Mar-17 09:46 270 6 gusting 13 23.3
2019-Mar-17 09:37 270 6 gusting 10 22.8
2019-Mar-17 09:27 270 9 gusting 13 22.2
2019-Mar-17 09:19 270 6 gusting 13 22.2
2019-Mar-17 09:10 270 10 gusting 19 21.7
2019-Mar-17 09:01 270 7 gusting 16 21.1
2019-Mar-17 08:51 225 6 gusting 9 21.1
2019-Mar-17 08:43 315 5 gusting 10 21.1
2019-Mar-17 08:33 270 1 gusting 2 20.6
2019-Mar-17 08:24 270 4 gusting 10 20.6
2019-Mar-17 08:15 20.6
2019-Mar-17 08:06 20.0
2019-Mar-17 07:58 19.4
2019-Mar-17 07:50 270 0 gusting 4 19.4
2019-Mar-17 07:41 19.4
2019-Mar-17 07:32 18.9
2019-Mar-17 07:23 270 18.9
2019-Mar-17 07:13 18.3
2019-Mar-17 07:05 270 6 gusting 9 18.3
2019-Mar-17 06:56 225 3 gusting 7 18.3
2019-Mar-17 06:47 270 5 gusting 9 17.8
2019-Mar-17 06:38 270 5 gusting 7 17.8
2019-Mar-17 06:30 225 4 gusting 7 17.2
2019-Mar-17 06:21 270 6 gusting 13 17.2
2019-Mar-17 06:13 225 3 gusting 8 16.7
2019-Mar-17 06:03 270 2 gusting 5 16.7
2019-Mar-17 05:53 16.7
2019-Mar-17 05:45 270 5 gusting 7 16.1
2019-Mar-17 05:35 180 15.0
2019-Mar-17 05:26 045 0 gusting 2 15.0
2019-Mar-17 05:16 270 2 gusting 5 15.0
2019-Mar-17 05:08 270 15.6
2019-Mar-17 04:58 090 15.0
2019-Mar-17 04:49 13.9
2019-Mar-17 04:40 270 2 gusting 4 14.4
2019-Mar-17 04:30 15.6
2019-Mar-17 04:21 270 0 gusting 2 16.1
2019-Mar-17 04:12 270 1 gusting 2 16.1
2019-Mar-17 04:04 270 0 gusting 2 15.6
2019-Mar-17 03:55 270 0 gusting 2 15.6
2019-Mar-17 03:46 225 16.7
2019-Mar-17 03:38 225 1 gusting 4 17.2
2019-Mar-17 03:28 315 16.7
2019-Mar-17 03:19 15.6
2019-Mar-17 03:10 14.4
2019-Mar-17 03:01 270 2 gusting 4 12.2
2019-Mar-17 02:53 11.1
2019-Mar-17 02:43 11.1
2019-Mar-17 02:33 11.1
2019-Mar-17 02:24 270 11.1
2019-Mar-17 02:15 11.1
2019-Mar-17 02:05 11.7
2019-Mar-17 01:57 12.2
2019-Mar-17 01:47 270 0 gusting 2 12.2
2019-Mar-17 01:38 270 0 gusting 2 12.2
2019-Mar-17 01:29 11.7
2019-Mar-17 01:21 270 11.1
2019-Mar-17 01:12 270 1 gusting 2 11.1
2019-Mar-17 01:04 11.1
2019-Mar-17 00:55 11.1
2019-Mar-17 00:47 11.1
2019-Mar-17 00:39 11.7
2019-Mar-17 00:30 11.7
2019-Mar-17 00:22 11.7
2019-Mar-17 00:14 270 2 gusting 3 11.7
2019-Mar-17 00:05 270 0 gusting 1 11.7
2019-Mar-16 23:55 11.7
2019-Mar-16 23:46 270 1 gusting 2 11.7
2019-Mar-16 23:37 11.7
2019-Mar-16 23:27 270 0 gusting 2 11.7
2019-Mar-16 23:18 270 11.7
2019-Mar-16 23:10 12.2
2019-Mar-16 23:02 270 2 gusting 3 12.2
2019-Mar-16 22:53 270 1 gusting 2 12.2
2019-Mar-16 22:43 12.2
2019-Mar-16 22:34 12.8
2019-Mar-16 22:26 12.8
2019-Mar-16 22:17 12.8
2019-Mar-16 22:09 270 0 gusting 2 12.8
2019-Mar-16 22:00 270 0 gusting 2 12.8
2019-Mar-16 21:52 270 0 gusting 2 12.8
2019-Mar-16 21:43 13.3
2019-Mar-16 21:35 13.3
2019-Mar-16 21:26 270 13.3
2019-Mar-16 21:17 13.3
2019-Mar-16 21:08 270 0 gusting 2 13.3
2019-Mar-16 21:00 13.3
2019-Mar-16 20:52 270 0 gusting 2 13.3
2019-Mar-16 20:42 315 13.3
2019-Mar-16 20:33 13.9
2019-Mar-16 20:25 090 14.4
2019-Mar-16 20:17 14.4
2019-Mar-16 20:07 225 15.0
2019-Mar-16 19:57 15.0
2019-Mar-16 19:48 15.6
2019-Mar-16 19:38 15.6
2019-Mar-16 19:28 16.1
2019-Mar-16 19:19 16.7
2019-Mar-16 19:09 17.2
2019-Mar-16 19:01 270 1 gusting 2 17.2
2019-Mar-16 18:52 17.2
2019-Mar-16 18:43 270 3 gusting 5 17.2
2019-Mar-16 18:33 270 2 gusting 3 17.8
2019-Mar-16 18:24 225 0 gusting 2 17.8
2019-Mar-16 18:15 270 2 gusting 2 17.8
2019-Mar-16 18:06 225 1 gusting 2 18.3
2019-Mar-16 17:58 270 1 gusting 3 18.3
2019-Mar-16 17:49 225 1 gusting 2 18.9
2019-Mar-16 17:39 270 0 gusting 2 18.9
2019-Mar-16 17:30 225 1 gusting 2 19.4
2019-Mar-16 17:22 270 2 gusting 3 20.0
2019-Mar-16 17:13 270 1 gusting 2 20.6
2019-Mar-16 17:04 270 2 gusting 2 21.1
2019-Mar-16 16:54 21.7
2019-Mar-16 16:45 090 0 gusting 2 21.7
2019-Mar-16 16:35 135 2 gusting 3 21.7
2019-Mar-16 16:26 090 2 gusting 3 21.7
2019-Mar-16 16:16 090 1 gusting 2 21.7
2019-Mar-16 16:07 22.2